Time;durP1;ratioP1;P1;durP2;ratioP2;P2;SDS_P1;SDS_P2;PMS_P1;PMS_P2;Temp;Humidity;BMP_temperature;BMP_pressure;BME280_temperature;BME280_humidity;BME280_pressure;Samples;Min_cycle;Max_cycle;Signal;HPM_P1;HPM_P2
2023/11/22 00:00:51;;;;;;;19.10;15.40;;;7.10;68.50;;;;;;5092292;28;20402;-70
2023/11/22 00:03:17;;;;;;;23.00;16.63;;;7.00;69.70;;;;;;5091936;28;20896;-70
2023/11/22 00:05:42;;;;;;;20.10;15.73;;;7.00;70.10;;;;;;5091862;28;20378;-70
2023/11/22 00:08:08;;;;;;;21.75;16.83;;;7.10;70.00;;;;;;5091801;28;20385;-70
2023/11/22 00:10:34;;;;;;;22.05;16.58;;;7.10;70.00;;;;;;5091624;28;20413;-70
2023/11/22 00:13:00;;;;;;;23.45;17.27;;;7.10;69.80;;;;;;5091831;28;20423;-70
2023/11/22 00:15:26;;;;;;;19.90;15.93;;;7.10;70.60;;;;;;5091110;28;20855;-69
2023/11/22 00:17:52;;;;;;;21.23;15.90;;;7.10;70.70;;;;;;5091318;28;20386;-70
2023/11/22 00:20:18;;;;;;;23.60;16.55;;;7.00;70.90;;;;;;5090220;28;20497;-71
2023/11/22 00:22:45;;;;;;;23.55;17.35;;;6.90;71.90;;;;;;5091084;28;20418;-70
2023/11/22 00:25:13;;;;;;;20.98;16.48;;;6.90;73.20;;;;;;5090582;28;20389;-71
2023/11/22 00:27:39;;;;;;;21.38;16.90;;;6.80;74.50;;;;;;5090523;28;20449;-70
2023/11/22 00:30:05;;;;;;;20.45;16.80;;;6.90;75.60;;;;;;5090105;28;20469;-70
2023/11/22 00:32:30;;;;;;;20.50;16.30;;;6.90;73.20;;;;;;5090508;28;20390;-70
2023/11/22 00:34:57;;;;;;;22.73;16.77;;;6.90;73.30;;;;;;5090871;28;20393;-70
2023/11/22 00:37:23;;;;;;;23.08;17.50;;;6.90;72.90;;;;;;5090496;28;20461;-70
2023/11/22 00:39:48;;;;;;;23.08;17.00;;;6.80;73.80;;;;;;5090385;28;20797;-71
2023/11/22 00:42:14;;;;;;;23.20;17.98;;;6.80;73.90;;;;;;5090198;28;20720;-69
2023/11/22 00:44:39;;;;;;;23.50;18.02;;;6.70;75.20;;;;;;5090287;28;20787;-69
2023/11/22 00:47:06;;;;;;;31.27;17.48;;;6.70;76.40;;;;;;5090359;28;20402;-70
2023/11/22 00:49:32;;;;;;;26.50;18.60;;;6.60;77.20;;;;;;5090455;28;20378;-71
2023/11/22 00:51:58;;;;;;;23.23;18.92;;;6.50;78.30;;;;;;5090805;28;20868;-72
2023/11/22 00:54:26;;;;;;;23.65;18.50;;;6.50;78.70;;;;;;5090407;28;20374;-71
2023/11/22 00:56:51;;;;;;;23.83;18.38;;;6.40;78.50;;;;;;5090368;28;20386;-71
2023/11/22 00:59:17;;;;;;;25.42;18.58;;;6.40;77.90;;;;;;5088780;28;20598;-71
2023/11/22 01:01:43;;;;;;;25.97;18.70;;;6.30;78.30;;;;;;5090100;28;20409;-71
2023/11/22 01:04:08;;;;;;;22.57;17.80;;;6.20;78.50;;;;;;5090073;28;20382;-72
2023/11/22 01:06:35;;;;;;;23.40;18.10;;;6.20;78.50;;;;;;5089895;28;20435;-72
2023/11/22 01:09:00;;;;;;;21.65;17.38;;;6.10;79.30;;;;;;5089883;28;20389;-72
2023/11/22 01:11:26;;;;;;;25.20;17.87;;;6.10;79.60;;;;;;5090116;28;20386;-71
2023/11/22 01:13:52;;;;;;;22.33;16.87;;;6.10;79.50;;;;;;5027702;28;1770182;-71
2023/11/22 01:16:17;;;;;;;20.90;15.93;;;6.10;78.70;;;;;;5090712;28;20397;-71
2023/11/22 01:18:45;;;;;;;19.95;16.50;;;6.00;78.60;;;;;;5090760;28;20471;-71
2023/11/22 01:21:11;;;;;;;20.52;16.38;;;6.00;79.30;;;;;;5090436;28;20435;-70
2023/11/22 01:23:37;;;;;;;19.92;16.00;;;5.90;79.20;;;;;;5090600;28;20710;-71
2023/11/22 01:26:09;;;;;;;20.90;15.82;;;5.90;79.20;;;;;;5090695;28;20378;-71
2023/11/22 01:28:35;;;;;;;20.23;15.40;;;5.90;79.30;;;;;;5090381;28;20401;-70
2023/11/22 01:31:03;;;;;;;20.03;16.30;;;5.90;79.60;;;;;;5090688;28;21029;-71
2023/11/22 01:33:29;;;;;;;20.47;15.70;;;5.90;79.60;;;;;;5091676;28;20947;-72
2023/11/22 01:35:54;;;;;;;20.48;16.63;;;5.90;79.80;;;;;;5091105;28;20464;-72
2023/11/22 01:38:20;;;;;;;21.73;16.85;;;5.80;80.50;;;;;;5090631;28;20385;-71
2023/11/22 01:40:47;;;;;;;22.60;15.82;;;5.80;80.70;;;;;;5090649;28;20402;-71
2023/11/22 01:43:15;;;;;;;22.85;16.92;;;5.80;80.10;;;;;;5093366;28;20425;-71
2023/11/22 01:45:40;;;;;;;21.13;17.20;;;5.80;80.50;;;;;;5094845;28;20919;-71
2023/11/22 01:48:06;;;;;;;25.20;18.33;;;5.70;81.40;;;;;;5110753;28;20473;-71
2023/11/22 01:50:33;;;;;;;23.60;18.23;;;5.70;83.00;;;;;;5094742;28;20863;-71
2023/11/22 01:52:59;;;;;;;23.17;18.58;;;5.60;83.70;;;;;;5095136;28;20480;-71
2023/11/22 01:55:25;;;;;;;24.38;19.27;;;5.50;84.70;;;;;;5094910;28;20432;-71
2023/11/22 01:57:51;;;;;;;25.83;19.10;;;5.50;87.70;;;;;;5094470;28;20746;-71
2023/11/22 02:00:18;;;;;;;22.92;18.65;;;5.60;85.50;;;;;;5094336;28;20398;-71
2023/11/22 02:02:43;;;;;;;22.45;18.48;;;5.70;83.80;;;;;;5094980;28;20494;-71
2023/11/22 02:05:10;;;;;;;25.92;18.45;;;5.70;82.90;;;;;;5094478;28;20408;-71
2023/11/22 02:07:35;;;;;;;27.20;19.50;;;5.60;83.00;;;;;;5094156;28;20886;-71
2023/11/22 02:10:07;;;;;;;23.17;18.17;;;5.60;83.80;;;;;;5094397;28;20482;-71
2023/11/22 02:12:33;;;;;;;23.17;18.23;;;5.60;83.10;;;;;;5094357;28;20385;-71
2023/11/22 02:14:59;;;;;;;23.10;18.67;;;5.50;83.60;;;;;;5106260;22;20869;-75
2023/11/22 02:17:25;;;;;;;25.65;19.05;;;5.50;84.60;;;;;;5094263;28;20441;-73
2023/11/22 02:19:50;;;;;;;27.33;19.65;;;5.40;85.50;;;;;;5094239;28;20370;-75
2023/11/22 02:22:16;;;;;;;26.07;20.10;;;5.30;85.90;;;;;;5094437;28;20390;-74
2023/11/22 02:24:41;;;;;;;26.00;19.80;;;5.20;87.30;;;;;;5094039;28;20396;-75
2023/11/22 02:27:07;;;;;;;30.33;20.40;;;5.00;87.00;;;;;;5095496;28;20386;-74
2023/11/22 02:29:32;;;;;;;23.10;18.13;;;5.00;90.90;;;;;;5100374;28;20971;-74
2023/11/22 02:31:58;;;;;;;23.63;17.70;;;5.20;86.70;;;;;;5101227;28;20882;-74
2023/11/22 02:34:23;;;;;;;21.93;17.23;;;5.30;83.30;;;;;;5101764;28;20412;-75
2023/11/22 02:36:49;;;;;;;23.00;17.10;;;5.30;82.10;;;;;;5102319;28;20386;-75
2023/11/22 02:39:16;;;;;;;22.35;16.75;;;5.20;81.90;;;;;;5100929;28;20409;-76
2023/11/22 02:41:42;;;;;;;22.95;16.77;;;5.20;82.20;;;;;;5096768;28;20425;-75
2023/11/22 02:44:07;;;;;;;21.52;16.40;;;5.20;82.70;;;;;;5096816;28;20390;-75
2023/11/22 02:46:33;;;;;;;22.55;16.75;;;5.20;81.60;;;;;;5094011;28;20461;-76
2023/11/22 02:48:59;;;;;;;22.15;17.83;;;5.10;81.10;;;;;;5093991;28;20431;-74
2023/11/22 02:51:25;;;;;;;24.17;18.37;;;5.10;82.80;;;;;;5093040;28;20474;-74
2023/11/22 02:53:51;;;;;;;23.20;18.08;;;4.90;84.10;;;;;;5093635;28;20390;-75
2023/11/22 02:56:17;;;;;;;23.20;17.73;;;4.80;84.50;;;;;;5094104;28;20868;-73
2023/11/22 02:58:43;;;;;;;25.67;18.08;;;4.80;86.50;;;;;;5099853;28;20378;-75
2023/11/22 03:01:08;;;;;;;24.70;18.67;;;4.60;88.00;;;;;;5108388;28;20402;-76
2023/11/22 03:03:35;;;;;;;21.90;17.60;;;4.70;89.10;;;;;;5108274;28;20430;-75
2023/11/22 03:06:01;;;;;;;21.85;16.48;;;4.90;90.10;;;;;;5096252;28;20386;-75
2023/11/22 03:08:27;;;;;;;21.88;16.58;;;5.10;85.40;;;;;;5096510;28;20374;-74
2023/11/22 03:10:53;;;;;;;19.73;15.75;;;5.10;82.70;;;;;;5095073;28;20389;-73
2023/11/22 03:13:18;;;;;;;18.40;15.07;;;5.10;81.50;;;;;;5095135;28;20748;-75
2023/11/22 03:15:44;;;;;;;19.73;16.00;;;5.20;79.70;;;;;;5094794;28;20385;-75
2023/11/22 03:18:11;;;;;;;20.83;15.97;;;5.20;78.90;;;;;;5095028;28;20884;-73
2023/11/22 03:20:37;;;;;;;20.08;16.30;;;5.20;78.70;;;;;;5094010;28;20941;-74
2023/11/22 03:23:03;;;;;;;22.23;16.35;;;5.20;79.20;;;;;;5094916;28;20398;-74
2023/11/22 03:25:28;;;;;;;20.08;16.55;;;5.10;80.70;;;;;;5094734;28;20835;-74
2023/11/22 03:27:54;;;;;;;25.27;17.60;;;5.00;81.10;;;;;;5093554;28;20382;-74
2023/11/22 03:30:20;;;;;;;21.80;16.63;;;5.00;81.80;;;;;;5093472;28;20382;-74
2023/11/22 03:32:46;;;;;;;23.27;18.67;;;4.90;84.10;;;;;;5093758;28;20386;-74
2023/11/22 03:35:12;;;;;;;29.17;18.77;;;4.80;84.30;;;;;;5092875;28;20453;-75
2023/11/22 03:37:37;;;;;;;23.30;17.55;;;4.70;87.10;;;;;;5092547;28;20393;-75
2023/11/22 03:40:03;;;;;;;24.30;18.40;;;4.80;86.30;;;;;;5092532;28;20389;-75
2023/11/22 03:42:29;;;;;;;22.63;18.50;;;4.70;85.20;;;;;;5092831;28;20382;-75
2023/11/22 03:44:55;;;;;;;23.87;18.00;;;4.70;87.50;;;;;;5092816;28;20405;-75
2023/11/22 03:47:20;;;;;;;21.50;17.30;;;4.80;86.40;;;;;;5092374;28;20797;-75
2023/11/22 03:49:46;;;;;;;24.40;17.77;;;4.90;85.00;;;;;;5092383;28;20378;-75
2023/11/22 03:52:12;;;;;;;24.23;18.05;;;5.00;82.90;;;;;;5092529;28;20871;-74
2023/11/22 03:54:39;;;;;;;22.30;16.98;;;5.20;80.90;;;;;;5098827;28;20461;-76
2023/11/22 03:57:05;;;;;;;19.93;16.70;;;5.20;81.50;;;;;;5093058;28;20484;-75
2023/11/22 03:59:30;;;;;;;24.55;17.90;;;5.30;80.40;;;;;;5092416;28;20468;-74
2023/11/22 04:01:56;;;;;;;21.42;17.25;;;5.30;80.50;;;;;;5092005;28;20398;-75
2023/11/22 04:04:22;;;;;;;22.73;17.50;;;5.40;80.90;;;;;;5091681;28;20382;-73
2023/11/22 04:06:48;;;;;;;23.23;18.45;;;5.40;79.10;;;;;;5090422;28;20482;-74
2023/11/22 04:09:16;;;;;;;21.90;16.90;;;5.40;79.40;;;;;;5091760;28;20383;-75
2023/11/22 04:11:42;;;;;;;24.35;16.35;;;5.40;77.80;;;;;;5091683;28;20373;-74
2023/11/22 04:14:08;;;;;;;22.45;17.23;;;5.40;75.40;;;;;;5091770;28;20385;-74
2023/11/22 04:16:34;;;;;;;28.55;18.20;;;5.30;74.90;;;;;;5091781;28;20458;-74
2023/11/22 04:18:59;;;;;;;20.60;17.05;;;5.20;75.00;;;;;;5091955;28;20389;-75
2023/11/22 04:21:25;;;;;;;23.50;18.43;;;5.10;76.20;;;;;;5092061;28;20393;-75
2023/11/22 04:23:51;;;;;;;24.57;18.93;;;5.00;78.00;;;;;;5098868;28;20382;-75
2023/11/22 04:26:16;;;;;;;24.30;17.90;;;4.90;79.50;;;;;;5095699;28;20469;-74
2023/11/22 04:28:42;;;;;;;26.08;19.52;;;4.90;78.50;;;;;;5092244;28;20467;-75
2023/11/22 04:31:10;;;;;;;25.27;19.70;;;4.90;80.00;;;;;;5090324;28;20440;-75
2023/11/22 04:33:37;;;;;;;24.58;19.33;;;5.00;77.20;;;;;;5091684;28;20914;-75
2023/11/22 04:36:03;;;;;;;22.65;18.75;;;5.00;75.80;;;;;;5091611;28;20385;-74
2023/11/22 04:38:28;;;;;;;26.40;19.80;;;4.90;75.10;;;;;;5092437;28;20472;-75
2023/11/22 04:40:54;;;;;;;25.23;19.30;;;4.90;75.30;;;;;;5091880;28;20787;-74
2023/11/22 04:43:20;;;;;;;27.45;19.80;;;4.90;75.10;;;;;;5091994;28;20666;-74
2023/11/22 04:45:45;;;;;;;28.10;20.20;;;4.90;75.30;;;;;;5091930;28;21204;-74
2023/11/22 04:48:11;;;;;;;26.00;19.88;;;4.80;75.70;;;;;;5091939;28;20378;-74
2023/11/22 04:50:37;;;;;;;27.27;20.13;;;4.80;75.60;;;;;;5090646;28;20447;-74
2023/11/22 04:53:03;;;;;;;25.80;19.88;;;4.80;76.10;;;;;;5092276;28;20397;-74
2023/11/22 04:55:28;;;;;;;27.05;19.77;;;4.80;75.60;;;;;;5092679;28;20469;-75
2023/11/22 04:57:54;;;;;;;26.48;20.42;;;4.80;75.70;;;;;;5091468;28;20856;-74
2023/11/22 05:00:22;;;;;;;26.80;20.30;;;4.70;75.80;;;;;;5091610;28;20451;-74
2023/11/22 05:02:48;;;;;;;26.90;19.92;;;4.70;76.20;;;;;;5106929;28;20888;-74
2023/11/22 05:05:14;;;;;;;25.17;19.93;;;4.60;78.10;;;;;;5091517;28;20386;-74
2023/11/22 05:07:39;;;;;;;25.90;20.43;;;4.70;78.20;;;;;;5091262;28;20417;-73
2023/11/22 05:10:08;;;;;;;27.30;19.80;;;4.70;78.30;;;;;;5091411;28;20428;-75
2023/11/22 05:12:34;;;;;;;27.20;21.00;;;4.70;77.40;;;;;;5090883;28;20440;-75
2023/11/22 05:15:00;;;;;;;27.97;20.70;;;4.60;77.60;;;;;;5091035;28;20812;-73
2023/11/22 05:17:25;;;;;;;27.02;20.70;;;4.70;77.00;;;;;;5091419;28;20393;-74
2023/11/22 05:19:51;;;;;;;26.38;20.80;;;4.70;76.90;;;;;;5091418;28;20872;-75
2023/11/22 05:22:16;;;;;;;26.42;20.00;;;4.60;77.50;;;;;;5091200;28;20397;-75
2023/11/22 05:24:42;;;;;;;30.75;20.45;;;4.60;77.50;;;;;;5091062;28;20400;-75
2023/11/22 05:27:08;;;;;;;28.03;21.00;;;4.60;76.40;;;;;;5090483;28;20397;-70
2023/11/22 05:29:34;;;;;;;25.95;20.65;;;4.50;76.50;;;;;;5090948;28;20374;-74
2023/11/22 05:32:00;;;;;;;31.20;20.97;;;4.60;76.30;;;;;;5081041;28;20427;-74
2023/11/22 05:34:26;;;;;;;28.02;21.20;;;4.50;76.70;;;;;;5068466;28;20566;-74
2023/11/22 05:36:52;;;;;;;26.87;20.20;;;4.50;76.10;;;;;;5068774;28;20490;-74
2023/11/22 05:39:18;;;;;;;27.95;21.08;;;4.40;77.80;;;;;;5069730;28;20794;-75
2023/11/22 05:41:44;;;;;;;28.83;20.70;;;4.40;76.80;;;;;;5069386;28;20427;-74
2023/11/22 05:44:09;;;;;;;29.27;21.10;;;4.50;76.40;;;;;;5089107;28;20957;-74
2023/11/22 05:46:35;;;;;;;27.63;20.27;;;4.40;76.30;;;;;;5089409;28;20410;-75
2023/11/22 05:49:00;;;;;;;27.15;20.83;;;4.40;76.80;;;;;;5088794;28;20402;-74
2023/11/22 05:51:26;;;;;;;30.25;22.02;;;4.10;78.60;;;;;;5087966;28;20394;-72
2023/11/22 05:53:52;;;;;;;32.13;22.90;;;3.90;81.80;;;;;;5089131;28;20495;-73
2023/11/22 05:56:18;;;;;;;29.57;21.90;;;4.00;85.00;;;;;;5089972;28;20408;-74
2023/11/22 05:58:44;;;;;;;32.03;21.52;;;3.90;84.40;;;;;;5088713;28;20825;-74
2023/11/22 06:01:11;;;;;;;29.60;22.55;;;3.90;85.70;;;;;;5089109;28;20440;-73
2023/11/22 06:03:38;;;;;;;44.75;25.55;;;3.80;86.10;;;;;;5087427;28;20417;-76
2023/11/22 06:06:04;;;;;;;33.08;23.60;;;3.50;88.20;;;;;;5087800;28;20756;-75
2023/11/22 06:08:30;;;;;;;31.40;23.42;;;3.40;90.30;;;;;;5088705;28;20806;-73
2023/11/22 06:10:57;;;;;;;33.30;22.83;;;3.30;91.00;;;;;;5087103;28;20401;-73
2023/11/22 06:13:23;;;;;;;33.08;24.20;;;3.20;92.90;;;;;;5086957;28;20437;-74
2023/11/22 06:15:49;;;;;;;35.03;24.13;;;3.10;94.10;;;;;;5088698;28;20501;-74
2023/11/22 06:18:15;;;;;;;30.40;22.50;;;3.10;96.30;;;;;;5084882;28;20776;-75
2023/11/22 06:20:41;;;;;;;29.55;21.95;;;3.40;96.60;;;;;;5088519;28;20516;-73
2023/11/22 06:23:07;;;;;;;29.40;22.00;;;3.60;92.70;;;;;;5084067;28;20395;-72
2023/11/22 06:25:33;;;;;;;28.55;21.58;;;3.60;90.90;;;;;;5088505;28;20700;-72
2023/11/22 06:27:58;;;;;;;30.33;21.23;;;3.80;90.60;;;;;;5084223;28;20386;-74
2023/11/22 06:30:24;;;;;;;27.90;20.10;;;3.80;85.90;;;;;;5099364;28;20410;-75
2023/11/22 06:32:51;;;;;;;30.27;20.90;;;3.70;85.30;;;;;;5110037;28;20374;-74
2023/11/22 06:35:17;;;;;;;25.75;20.00;;;3.70;86.20;;;;;;5101843;28;20389;-75
2023/11/22 06:37:43;;;;;;;28.67;20.10;;;3.80;85.10;;;;;;5094284;28;20382;-75
2023/11/22 06:40:12;;;;;;;29.25;21.50;;;3.60;85.60;;;;;;5094434;28;20369;-75
2023/11/22 06:42:38;;;;;;;29.60;20.20;;;3.70;83.40;;;;;;5094686;28;20458;-74
2023/11/22 06:45:06;;;;;;;28.15;20.90;;;3.60;86.60;;;;;;5083506;28;20459;-76
2023/11/22 06:47:32;;;;;;;31.35;22.00;;;3.60;85.60;;;;;;5074673;28;20867;-73
2023/11/22 06:49:58;;;;;;;27.30;21.50;;;3.60;86.20;;;;;;5074404;28;20411;-75
2023/11/22 06:52:23;;;;;;;34.35;24.15;;;3.40;87.10;;;;;;5074021;28;20402;-75
2023/11/22 06:54:49;;;;;;;35.53;24.30;;;3.10;87.10;;;;;;5073445;28;20862;-75
2023/11/22 06:57:15;;;;;;;34.03;23.60;;;2.90;89.60;;;;;;5072500;28;20376;-73
2023/11/22 06:59:41;;;;;;;28.23;21.50;;;2.80;93.40;;;;;;5071960;28;20464;-75
2023/11/22 07:02:07;;;;;;;32.40;22.70;;;2.90;94.70;;;;;;5074247;28;20404;-75
2023/11/22 07:04:33;;;;;;;29.77;21.40;;;2.90;94.60;;;;;;5072786;28;20398;-74
2023/11/22 07:06:58;;;;;;;33.45;23.60;;;3.20;94.50;;;;;;5072317;28;20387;-75
2023/11/22 07:09:24;;;;;;;32.57;22.73;;;3.00;91.60;;;;;;5072317;28;20427;-72
2023/11/22 07:11:51;;;;;;;38.10;24.70;;;2.90;93.90;;;;;;5072992;28;20398;-75
2023/11/22 07:14:17;;;;;;;31.33;21.93;;;2.90;95.20;;;;;;5073278;28;20987;-74
2023/11/22 07:16:42;;;;;;;28.00;21.10;;;3.20;92.30;;;;;;5073041;28;20429;-74
2023/11/22 07:19:08;;;;;;;32.92;21.73;;;3.20;89.90;;;;;;5073025;28;20383;-74
2023/11/22 07:21:37;;;;;;;29.77;22.27;;;3.30;89.10;;;;;;5072994;28;20461;-75
2023/11/22 07:24:04;;;;;;;31.83;22.50;;;3.20;88.20;;;;;;5072953;28;20424;-75
2023/11/22 07:26:33;;;;;;;33.97;23.00;;;3.20;88.70;;;;;;5072727;28;20387;-75
2023/11/22 07:28:58;;;;;;;32.30;23.67;;;3.10;89.30;;;;;;5072821;28;20475;-75
2023/11/22 07:31:24;;;;;;;36.70;24.10;;;3.10;90.00;;;;;;5072428;28;20415;-75
2023/11/22 07:33:51;;;;;;;34.92;25.80;;;3.10;92.00;;;;;;5073598;28;20392;-75
2023/11/22 07:36:17;;;;;;;35.65;25.90;;;3.10;92.00;;;;;;5072634;28;20379;-75
2023/11/22 07:38:42;;;;;;;33.43;24.50;;;3.20;91.80;;;;;;5072573;28;20392;-75
2023/11/22 07:41:08;;;;;;;38.45;23.38;;;3.20;91.70;;;;;;5071076;28;20431;-74
2023/11/22 07:43:34;;;;;;;30.45;19.75;;;3.30;93.10;;;;;;5072909;28;20380;-75
2023/11/22 07:46:01;;;;;;;24.70;18.60;;;3.60;89.10;;;;;;5072695;28;20898;-75
2023/11/22 07:48:28;;;;;;;28.73;21.37;;;3.70;86.10;;;;;;5072620;28;20441;-75
2023/11/22 07:50:54;;;;;;;32.08;21.65;;;3.50;87.10;;;;;;5072207;28;20410;-76
2023/11/22 07:53:20;;;;;;;27.50;20.42;;;3.30;90.00;;;;;;5072817;28;20547;-74
2023/11/22 07:55:45;;;;;;;27.97;19.80;;;3.30;92.60;;;;;;5073081;28;20779;-75
2023/11/22 07:58:11;;;;;;;30.83;21.10;;;3.50;92.30;;;;;;5073036;28;20466;-73
2023/11/22 08:00:37;;;;;;;30.27;21.60;;;3.70;89.10;;;;;;5072385;28;20478;-75
2023/11/22 08:03:02;;;;;;;28.90;21.85;;;3.70;89.70;;;;;;5072661;28;20380;-74
2023/11/22 08:05:36;;;;;;;27.75;19.58;;;3.60;89.70;;;;;;5072780;28;20375;-75
2023/11/22 08:08:08;;;;;;;27.20;19.95;;;3.70;89.20;;;;;;5072653;28;20892;-75
2023/11/22 08:10:37;;;;;;;30.55;20.30;;;3.90;85.80;;;;;;5071358;28;20507;-74
2023/11/22 08:13:03;;;;;;;28.00;19.40;;;3.90;83.80;;;;;;5072274;28;20471;-73
2023/11/22 08:15:31;;;;;;;28.20;18.88;;;3.80;84.50;;;;;;5091577;22;20434;-70
2023/11/22 08:17:58;;;;;;;25.15;18.30;;;3.80;86.60;;;;;;5091302;28;20386;-70
2023/11/22 08:20:25;;;;;;;30.20;21.38;;;3.80;86.90;;;;;;5091140;28;20497;-70
2023/11/22 08:22:50;;;;;;;29.77;19.85;;;3.90;86.10;;;;;;5091564;28;20382;-70
2023/11/22 08:25:16;;;;;;;24.77;18.20;;;3.90;87.00;;;;;;5091618;28;20737;-70
2023/11/22 08:27:42;;;;;;;22.33;17.05;;;3.90;85.00;;;;;;5106485;28;20382;-70
2023/11/22 08:30:12;;;;;;;23.33;17.70;;;4.00;85.30;;;;;;5090715;28;20852;-70
2023/11/22 08:32:39;;;;;;;26.55;17.50;;;4.30;80.00;;;;;;5090818;28;20406;-71
2023/11/22 08:35:07;;;;;;;28.10;20.38;;;4.30;79.20;;;;;;5090639;28;20390;-69
2023/11/22 08:37:35;;;;;;;23.95;15.30;;;4.30;79.40;;;;;;5091062;28;20382;-69
2023/11/22 08:40:01;;;;;;;20.15;14.20;;;4.60;71.50;;;;;;5091076;28;20455;-70
2023/11/22 08:42:26;;;;;;;19.55;14.50;;;4.70;69.30;;;;;;5091517;28;20450;-70
2023/11/22 08:44:52;;;;;;;20.83;14.67;;;4.80;67.60;;;;;;5091138;28;20378;-71
2023/11/22 08:47:17;;;;;;;26.00;15.57;;;5.00;66.20;;;;;;5094138;28;20385;-70
2023/11/22 08:49:43;;;;;;;20.33;12.90;;;5.40;62.00;;;;;;5109963;28;20386;-71
2023/11/22 08:52:09;;;;;;;20.52;12.88;;;5.50;59.10;;;;;;5093524;28;20390;-71
2023/11/22 08:54:34;;;;;;;16.27;11.85;;;5.50;56.60;;;;;;5093135;28;20438;-71
2023/11/22 08:57:00;;;;;;;17.92;11.95;;;5.60;54.60;;;;;;5096446;28;20457;-71
2023/11/22 08:59:26;;;;;;;18.58;12.30;;;5.70;53.20;;;;;;5101015;28;20441;-70
2023/11/22 09:01:52;;;;;;;21.63;13.43;;;5.70;53.00;;;;;;5099484;28;20402;-70
2023/11/22 09:04:18;;;;;;;17.60;12.88;;;5.70;53.90;;;;;;5096443;28;20465;-70
2023/11/22 09:06:44;;;;;;;20.35;12.80;;;5.70;54.70;;;;;;5090242;28;20444;-70
2023/11/22 09:09:14;;;;;;;17.40;12.10;;;5.80;52.90;;;;;;5090565;28;20907;-71
2023/11/22 09:11:40;;;;;;;22.80;13.57;;;5.80;53.90;;;;;;5085456;28;20443;-70
2023/11/22 09:14:06;;;;;;;17.23;13.20;;;5.80;53.40;;;;;;5076026;28;20843;-70
2023/11/22 09:16:38;;;;;;;17.10;12.70;;;5.90;55.40;;;;;;5068286;28;20402;-70
2023/11/22 09:19:06;;;;;;;15.82;11.75;;;6.10;52.60;;;;;;5070555;28;20523;-70
2023/11/22 09:21:32;;;;;;;16.70;12.18;;;6.30;49.10;;;;;;5087865;28;20527;-70
2023/11/22 09:23:58;;;;;;;15.38;11.40;;;6.40;48.40;;;;;;5088543;28;20387;-70
2023/11/22 09:26:24;;;;;;;15.35;10.57;;;6.50;47.90;;;;;;5090536;28;20864;-72
2023/11/22 09:28:50;;;;;;;13.75;9.30;;;6.70;45.10;;;;;;5088108;28;20405;-71
2023/11/22 09:31:20;;;;;;;17.70;9.60;;;6.80;41.50;;;;;;5076883;28;20491;-71
2023/11/22 09:33:46;;;;;;;18.23;9.10;;;6.90;42.40;;;;;;5087355;28;20398;-71
2023/11/22 09:36:12;;;;;;;10.32;8.05;;;6.90;42.10;;;;;;5088485;28;20398;-70
2023/11/22 09:38:38;;;;;;;11.73;8.13;;;7.00;42.00;;;;;;5087661;28;20386;-70
2023/11/22 09:41:04;;;;;;;11.48;8.80;;;7.20;40.20;;;;;;5087729;28;20496;-70
2023/11/22 09:43:30;;;;;;;16.95;8.50;;;7.30;39.60;;;;;;5087199;28;20462;-70
2023/11/22 09:45:56;;;;;;;14.60;8.90;;;7.30;40.50;;;;;;5088680;28;20386;-70
2023/11/22 09:48:24;;;;;;;14.25;8.35;;;7.50;37.60;;;;;;5088545;28;20458;-71
2023/11/22 09:51:11;;;;;;;16.17;7.70;;;7.50;37.30;;;;;;5089332;28;20439;-72
2023/11/22 09:53:50;;;;;;;11.83;7.87;;;7.40;35.50;;;;;;5088030;28;20435;-71
2023/11/22 09:56:18;;;;;;;10.40;7.30;;;7.50;36.70;;;;;;5077327;28;20479;-71
2023/11/22 09:58:44;;;;;;;11.70;7.80;;;7.50;36.10;;;;;;5067235;28;20387;-71
2023/11/22 10:01:17;;;;;;;12.45;8.20;;;7.60;35.70;;;;;;5080381;28;20406;-71
2023/11/22 10:03:42;;;;;;;13.15;8.50;;;7.60;35.20;;;;;;5089386;28;20399;-70
2023/11/22 10:06:08;;;;;;;12.10;7.73;;;7.40;36.00;;;;;;5089153;28;20482;-71
2023/11/22 10:08:35;;;;;;;15.83;7.63;;;7.70;35.80;;;;;;5091819;28;20804;-71
2023/11/22 10:11:01;;;;;;;12.75;8.25;;;7.90;33.10;;;;;;5091304;28;20381;-70
2023/11/22 10:13:27;;;;;;;12.80;7.80;;;8.00;33.40;;;;;;5089888;28;20443;-71
2023/11/22 10:15:54;;;;;;;11.75;7.60;;;8.10;33.30;;;;;;5072989;28;20418;-70
2023/11/22 10:18:21;;;;;;;11.53;7.40;;;8.20;29.60;;;;;;5076238;28;20840;-71
2023/11/22 10:20:51;;;;;;;9.55;7.00;;;8.20;29.90;;;;;;5091418;28;20775;-71
2023/11/22 10:23:19;;;;;;;9.35;7.32;;;8.20;29.60;;;;;;5090945;28;20398;-71
2023/11/22 10:25:52;;;;;;;10.20;6.63;;;8.20;30.10;;;;;;5089885;28;20876;-71
2023/11/22 10:28:23;;;;;;;9.52;5.93;;;8.20;29.40;;;;;;5091331;28;20481;-73
2023/11/22 10:30:51;;;;;;;12.82;7.28;;;8.20;29.00;;;;;;5091258;28;20460;-70
2023/11/22 10:33:18;;;;;;;10.48;6.50;;;8.30;28.80;;;;;;5090589;28;20800;-71
2023/11/22 10:35:53;;;;;;;10.80;7.00;;;8.40;28.60;;;;;;5076244;28;20886;-70
2023/11/22 10:38:20;;;;;;;10.67;6.50;;;8.50;26.50;;;;;;5070331;28;20423;-71
2023/11/22 10:40:47;;;;;;;9.35;5.95;;;8.60;26.40;;;;;;5088879;28;20402;-70
2023/11/22 10:43:16;;;;;;;10.70;6.60;;;8.60;26.80;;;;;;5091263;28;20489;-70
2023/11/22 10:45:46;;;;;;;12.02;6.88;;;8.60;26.50;;;;;;5090764;28;20450;-71
2023/11/22 10:48:17;;;;;;;8.98;6.70;;;8.40;27.70;;;;;;5090900;28;20771;-70
2023/11/22 10:50:47;;;;;;;11.00;7.63;;;8.50;28.00;;;;;;5075501;28;20833;-70
2023/11/22 10:53:15;;;;;;;12.82;7.57;;;8.70;28.90;;;;;;5091322;28;20464;-71
2023/11/22 10:55:48;;;;;;;12.30;7.90;;;8.60;28.50;;;;;;5090321;28;20421;-71
2023/11/22 10:58:15;;;;;;;12.95;8.32;;;8.50;28.90;;;;;;5090918;28;20415;-71
2023/11/22 11:00:43;;;;;;;12.05;8.05;;;8.60;30.00;;;;;;5090278;28;20436;-73
2023/11/22 11:03:14;;;;;;;11.65;7.80;;;8.70;29.10;;;;;;5090543;28;20430;-71
2023/11/22 11:05:52;;;;;;;12.77;8.13;;;8.60;28.90;;;;;;5090126;28;20370;-70
2023/11/22 11:08:20;;;;;;;11.63;6.95;;;8.50;28.70;;;;;;5090333;28;20385;-71
2023/11/22 11:10:46;;;;;;;9.18;6.15;;;8.50;27.60;;;;;;5090634;28;20852;-72
2023/11/22 11:13:13;;;;;;;9.57;6.40;;;8.40;27.90;;;;;;5086608;28;20399;-72
2023/11/22 11:15:40;;;;;;;9.80;6.45;;;8.30;27.70;;;;;;5070034;28;20412;-71
2023/11/22 11:18:13;;;;;;;10.38;6.57;;;8.40;27.70;;;;;;5077774;28;20396;-70
2023/11/22 11:20:53;;;;;;;9.40;6.63;;;8.40;28.00;;;;;;5089192;28;20396;-70
2023/11/22 11:23:24;;;;;;;8.13;6.38;;;8.30;28.40;;;;;;5110410;28;20403;-70
2023/11/22 11:25:52;;;;;;;9.95;6.20;;;8.20;28.00;;;;;;5109501;28;20385;-72
2023/11/22 11:28:18;;;;;;;12.13;6.00;;;8.30;26.70;;;;;;5101920;28;20963;-70
2023/11/22 11:30:50;;;;;;;10.70;6.10;;;8.40;26.80;;;;;;5110525;27;20395;-70
2023/11/22 11:33:19;;;;;;;10.30;6.57;;;8.60;27.10;;;;;;5110555;28;20380;-71
2023/11/22 11:35:50;;;;;;;11.95;6.88;;;9.00;25.90;;;;;;5091401;28;20911;-71
2023/11/22 11:38:39;;;;;;;11.50;6.93;;;9.20;24.50;;;;;;5083055;28;20429;-70
2023/11/22 11:41:11;;;;;;;10.85;6.57;;;9.20;24.80;;;;;;5069634;28;20408;-71
2023/11/22 11:43:46;;;;;;;13.60;6.68;;;8.90;25.10;;;;;;5085173;28;20386;-70
2023/11/22 11:46:12;;;;;;;9.82;6.43;;;9.10;24.50;;;;;;5089397;28;20374;-71
2023/11/22 11:48:52;;;;;;;11.10;5.68;;;9.20;24.40;;;;;;5088734;28;20406;-71
2023/11/22 11:51:23;;;;;;;10.98;6.10;;;9.30;23.00;;;;;;5089759;28;20378;-70
2023/11/22 11:53:49;;;;;;;9.60;6.13;;;9.30;22.50;;;;;;5089861;28;20439;-70
2023/11/22 11:56:15;;;;;;;13.02;7.18;;;9.20;23.40;;;;;;5088842;28;20478;-71
2023/11/22 11:58:43;;;;;;;9.38;5.55;;;9.30;23.90;;;;;;5088723;28;20393;-70
2023/11/22 12:01:11;;;;;;;11.93;5.60;;;9.10;23.00;;;;;;5089290;28;20410;-71
2023/11/22 12:03:37;;;;;;;10.23;5.72;;;9.00;22.80;;;;;;5089543;28;20437;-70
2023/11/22 12:06:02;;;;;;;8.45;5.75;;;9.20;22.10;;;;;;5089254;28;20420;-71
2023/11/22 12:08:30;;;;;;;10.93;4.63;;;9.40;21.30;;;;;;5089006;28;21006;-72
2023/11/22 12:10:58;;;;;;;9.00;4.95;;;9.20;19.70;;;;;;5087861;28;20852;-71
2023/11/22 12:13:25;;;;;;;9.55;4.25;;;9.10;21.50;;;;;;5088700;28;20397;-71
2023/11/22 12:15:53;;;;;;;6.20;4.10;;;9.00;21.00;;;;;;5089474;28;20399;-72
2023/11/22 12:18:19;;;;;;;12.67;5.90;;;8.80;22.20;;;;;;5089543;28;20492;-71
2023/11/22 12:20:58;;;;;;;9.45;5.05;;;8.50;22.20;;;;;;5088250;28;20402;-71
2023/11/22 12:23:27;;;;;;;8.90;5.20;;;8.30;23.00;;;;;;5089907;28;20374;-71
2023/11/22 12:26:00;;;;;;;8.40;5.90;;;8.10;24.40;;;;;;5088835;28;20632;-71
2023/11/22 12:28:30;;;;;;;12.23;6.07;;;7.90;24.60;;;;;;5088474;28;20464;-70
2023/11/22 12:31:06;;;;;;;8.68;5.05;;;7.90;25.50;;;;;;5088674;28;20393;-72
2023/11/22 12:33:31;;;;;;;9.75;5.32;;;7.90;25.60;;;;;;5083099;28;20390;-72
2023/11/22 12:35:57;;;;;;;18.47;6.23;;;7.90;25.70;;;;;;5087980;28;20481;-72
2023/11/22 12:38:26;;;;;;;13.00;7.07;;;8.00;24.20;;;;;;5079414;28;20417;-71